sensor_id;sensor_type;location;lat;lon;timestamp;P1;durP1;ratioP1;P2;durP2;ratioP2
9330;SDS011;4704;50.470;12.072;2022-07-30T00:01:17;2.42;;;2.30;;
9330;SDS011;4704;50.470;12.072;2022-07-30T00:03:44;2.55;;;2.35;;
9330;SDS011;4704;50.470;12.072;2022-07-30T00:06:11;2.97;;;2.78;;
9330;SDS011;4704;50.470;12.072;2022-07-30T00:08:39;2.28;;;2.17;;
9330;SDS011;4704;50.470;12.072;2022-07-30T00:11:06;2.53;;;2.33;;
9330;SDS011;4704;50.470;12.072;2022-07-30T00:13:36;2.38;;;2.22;;
9330;SDS011;4704;50.470;12.072;2022-07-30T00:16:03;2.35;;;2.25;;
9330;SDS011;4704;50.470;12.072;2022-07-30T00:18:33;2.58;;;2.20;;
9330;SDS011;4704;50.470;12.072;2022-07-30T00:21:00;2.70;;;2.50;;
9330;SDS011;4704;50.470;12.072;2022-07-30T00:23:27;2.25;;;2.15;;
9330;SDS011;4704;50.470;12.072;2022-07-30T00:25:56;2.03;;;1.92;;
9330;SDS011;4704;50.470;12.072;2022-07-30T00:28:23;2.53;;;2.40;;
9330;SDS011;4704;50.470;12.072;2022-07-30T00:30:51;2.30;;;2.20;;
9330;SDS011;4704;50.470;12.072;2022-07-30T00:33:18;2.22;;;2.13;;
9330;SDS011;4704;50.470;12.072;2022-07-30T00:35:47;2.60;;;2.50;;
9330;SDS011;4704;50.470;12.072;2022-07-30T00:38:14;2.53;;;2.40;;
9330;SDS011;4704;50.470;12.072;2022-07-30T00:40:41;2.40;;;2.30;;
9330;SDS011;4704;50.470;12.072;2022-07-30T00:43:12;2.10;;;2.00;;
9330;SDS011;4704;50.470;12.072;2022-07-30T00:45:40;2.13;;;2.03;;
9330;SDS011;4704;50.470;12.072;2022-07-30T00:48:08;2.70;;;2.50;;
9330;SDS011;4704;50.470;12.072;2022-07-30T00:50:35;2.33;;;2.22;;
9330;SDS011;4704;50.470;12.072;2022-07-30T00:53:04;2.60;;;2.40;;
9330;SDS011;4704;50.470;12.072;2022-07-30T00:55:32;2.65;;;2.45;;
9330;SDS011;4704;50.470;12.072;2022-07-30T00:58:00;2.65;;;2.45;;
9330;SDS011;4704;50.470;12.072;2022-07-30T01:00:27;2.40;;;2.30;;
9330;SDS011;4704;50.470;12.072;2022-07-30T01:02:54;2.33;;;2.13;;
9330;SDS011;4704;50.470;12.072;2022-07-30T01:05:22;2.60;;;2.40;;
9330;SDS011;4704;50.470;12.072;2022-07-30T01:07:49;2.35;;;2.25;;
9330;SDS011;4704;50.470;12.072;2022-07-30T01:10:18;2.42;;;2.30;;
9330;SDS011;4704;50.470;12.072;2022-07-30T01:12:45;2.50;;;2.40;;
9330;SDS011;4704;50.470;12.072;2022-07-30T01:15:12;2.55;;;2.40;;
9330;SDS011;4704;50.470;12.072;2022-07-30T01:17:41;2.40;;;2.30;;
9330;SDS011;4704;50.470;12.072;2022-07-30T01:20:10;2.70;;;2.50;;
9330;SDS011;4704;50.470;12.072;2022-07-30T01:22:43;2.40;;;2.30;;
9330;SDS011;4704;50.470;12.072;2022-07-30T01:25:15;2.53;;;2.33;;
9330;SDS011;4704;50.470;12.072;2022-07-30T01:27:45;2.70;;;2.50;;
9330;SDS011;4704;50.470;12.072;2022-07-30T01:30:16;2.80;;;2.60;;
9330;SDS011;4704;50.470;12.072;2022-07-30T01:32:44;2.40;;;2.30;;
9330;SDS011;4704;50.470;12.072;2022-07-30T01:35:13;2.50;;;2.40;;
9330;SDS011;4704;50.470;12.072;2022-07-30T01:37:40;2.45;;;2.25;;
9330;SDS011;4704;50.470;12.072;2022-07-30T01:40:10;2.50;;;2.40;;
9330;SDS011;4704;50.470;12.072;2022-07-30T01:42:38;2.65;;;2.45;;
9330;SDS011;4704;50.470;12.072;2022-07-30T01:45:07;2.40;;;2.25;;
9330;SDS011;4704;50.470;12.072;2022-07-30T01:47:36;2.33;;;2.22;;
9330;SDS011;4704;50.470;12.072;2022-07-30T01:50:05;2.50;;;2.40;;
9330;SDS011;4704;50.470;12.072;2022-07-30T01:52:34;2.42;;;2.33;;
9330;SDS011;4704;50.470;12.072;2022-07-30T01:55:04;2.50;;;2.40;;
9330;SDS011;4704;50.470;12.072;2022-07-30T01:57:32;2.30;;;2.20;;
9330;SDS011;4704;50.470;12.072;2022-07-30T02:00:03;2.30;;;2.15;;
9330;SDS011;4704;50.470;12.072;2022-07-30T02:02:32;2.30;;;2.20;;
9330;SDS011;4704;50.470;12.072;2022-07-30T02:05:00;2.20;;;2.10;;
9330;SDS011;4704;50.470;12.072;2022-07-30T02:10:05;2.20;;;2.00;;
9330;SDS011;4704;50.470;12.072;2022-07-30T02:12:34;2.40;;;2.30;;
9330;SDS011;4704;50.470;12.072;2022-07-30T02:15:06;2.45;;;2.25;;
9330;SDS011;4704;50.470;12.072;2022-07-30T02:17:37;2.63;;;2.42;;
9330;SDS011;4704;50.470;12.072;2022-07-30T02:20:05;2.28;;;2.17;;
9330;SDS011;4704;50.470;12.072;2022-07-30T02:22:33;2.47;;;2.30;;
9330;SDS011;4704;50.470;12.072;2022-07-30T02:25:02;2.28;;;2.17;;
9330;SDS011;4704;50.470;12.072;2022-07-30T02:27:31;2.20;;;2.10;;
9330;SDS011;4704;50.470;12.072;2022-07-30T02:29:59;2.13;;;2.03;;
9330;SDS011;4704;50.470;12.072;2022-07-30T02:32:28;2.20;;;2.10;;
9330;SDS011;4704;50.470;12.072;2022-07-30T02:34:59;2.58;;;2.40;;
9330;SDS011;4704;50.470;12.072;2022-07-30T02:37:28;2.10;;;2.00;;
9330;SDS011;4704;50.470;12.072;2022-07-30T02:39:56;2.40;;;2.30;;
9330;SDS011;4704;50.470;12.072;2022-07-30T02:42:24;2.20;;;2.10;;
9330;SDS011;4704;50.470;12.072;2022-07-30T02:44:52;2.20;;;2.10;;
9330;SDS011;4704;50.470;12.072;2022-07-30T02:47:21;2.45;;;2.35;;
9330;SDS011;4704;50.470;12.072;2022-07-30T02:49:49;2.45;;;2.30;;
9330;SDS011;4704;50.470;12.072;2022-07-30T02:52:18;2.00;;;1.90;;
9330;SDS011;4704;50.470;12.072;2022-07-30T02:54:46;2.30;;;2.20;;
9330;SDS011;4704;50.470;12.072;2022-07-30T02:57:15;2.60;;;2.40;;
9330;SDS011;4704;50.470;12.072;2022-07-30T02:59:43;2.28;;;2.17;;
9330;SDS011;4704;50.470;12.072;2022-07-30T03:02:12;2.35;;;2.25;;
9330;SDS011;4704;50.470;12.072;2022-07-30T03:04:39;2.20;;;2.10;;
9330;SDS011;4704;50.470;12.072;2022-07-30T03:07:07;2.20;;;2.10;;
9330;SDS011;4704;50.470;12.072;2022-07-30T03:09:37;2.30;;;2.20;;
9330;SDS011;4704;50.470;12.072;2022-07-30T03:12:05;2.30;;;2.20;;
9330;SDS011;4704;50.470;12.072;2022-07-30T03:14:33;2.30;;;2.10;;
9330;SDS011;4704;50.470;12.072;2022-07-30T03:17:01;2.10;;;2.00;;
9330;SDS011;4704;50.470;12.072;2022-07-30T03:19:29;2.45;;;2.35;;
9330;SDS011;4704;50.470;12.072;2022-07-30T03:21:59;2.22;;;2.13;;
9330;SDS011;4704;50.470;12.072;2022-07-30T03:24:27;2.13;;;2.03;;
9330;SDS011;4704;50.470;12.072;2022-07-30T03:26:57;2.28;;;2.15;;
9330;SDS011;4704;50.470;12.072;2022-07-30T03:29:27;2.10;;;2.00;;
9330;SDS011;4704;50.470;12.072;2022-07-30T03:31:55;2.03;;;1.92;;
9330;SDS011;4704;50.470;12.072;2022-07-30T03:34:23;2.42;;;2.25;;
9330;SDS011;4704;50.470;12.072;2022-07-30T03:36:51;2.28;;;2.17;;
9330;SDS011;4704;50.470;12.072;2022-07-30T03:39:19;2.38;;;2.28;;
9330;SDS011;4704;50.470;12.072;2022-07-30T03:41:46;2.22;;;2.13;;
9330;SDS011;4704;50.470;12.072;2022-07-30T03:44:15;2.45;;;2.35;;
9330;SDS011;4704;50.470;12.072;2022-07-30T03:46:43;2.20;;;2.10;;
9330;SDS011;4704;50.470;12.072;2022-07-30T03:49:10;2.40;;;2.20;;
9330;SDS011;4704;50.470;12.072;2022-07-30T03:51:39;2.05;;;1.95;;
9330;SDS011;4704;50.470;12.072;2022-07-30T03:54:07;2.15;;;2.05;;
9330;SDS011;4704;50.470;12.072;2022-07-30T03:56:36;2.35;;;2.15;;
9330;SDS011;4704;50.470;12.072;2022-07-30T03:59:04;2.40;;;2.30;;
9330;SDS011;4704;50.470;12.072;2022-07-30T04:01:33;2.42;;;2.22;;
9330;SDS011;4704;50.470;12.072;2022-07-30T04:04:04;2.00;;;1.90;;
9330;SDS011;4704;50.470;12.072;2022-07-30T04:06:32;2.25;;;2.10;;
9330;SDS011;4704;50.470;12.072;2022-07-30T04:09:03;2.10;;;2.00;;
9330;SDS011;4704;50.470;12.072;2022-07-30T04:11:31;2.10;;;2.00;;
9330;SDS011;4704;50.470;12.072;2022-07-30T04:13:59;2.13;;;2.00;;
9330;SDS011;4704;50.470;12.072;2022-07-30T04:16:28;2.00;;;1.90;;
9330;SDS011;4704;50.470;12.072;2022-07-30T04:18:58;2.30;;;2.10;;
9330;SDS011;4704;50.470;12.072;2022-07-30T04:21:26;1.85;;;1.75;;
9330;SDS011;4704;50.470;12.072;2022-07-30T04:23:53;2.22;;;2.13;;
9330;SDS011;4704;50.470;12.072;2022-07-30T04:26:21;1.80;;;1.70;;
9330;SDS011;4704;50.470;12.072;2022-07-30T04:28:48;2.05;;;1.95;;
9330;SDS011;4704;50.470;12.072;2022-07-30T04:31:17;2.00;;;1.90;;
9330;SDS011;4704;50.470;12.072;2022-07-30T04:33:45;2.10;;;2.00;;
9330;SDS011;4704;50.470;12.072;2022-07-30T04:36:13;2.15;;;2.05;;
9330;SDS011;4704;50.470;12.072;2022-07-30T04:38:41;2.20;;;2.10;;
9330;SDS011;4704;50.470;12.072;2022-07-30T04:41:08;2.10;;;2.00;;
9330;SDS011;4704;50.470;12.072;2022-07-30T04:43:35;1.90;;;1.80;;
9330;SDS011;4704;50.470;12.072;2022-07-30T04:46:03;2.17;;;1.98;;
9330;SDS011;4704;50.470;12.072;2022-07-30T04:48:30;2.00;;;1.90;;
9330;SDS011;4704;50.470;12.072;2022-07-30T04:50:58;2.03;;;1.92;;
9330;SDS011;4704;50.470;12.072;2022-07-30T04:53:28;1.90;;;1.80;;
9330;SDS011;4704;50.470;12.072;2022-07-30T04:55:55;1.92;;;1.83;;
9330;SDS011;4704;50.470;12.072;2022-07-30T04:58:25;2.00;;;1.90;;
9330;SDS011;4704;50.470;12.072;2022-07-30T05:00:53;2.20;;;2.10;;
9330;SDS011;4704;50.470;12.072;2022-07-30T05:03:21;1.90;;;1.80;;
9330;SDS011;4704;50.470;12.072;2022-07-30T05:05:49;1.80;;;1.70;;
9330;SDS011;4704;50.470;12.072;2022-07-30T05:08:16;1.80;;;1.70;;
9330;SDS011;4704;50.470;12.072;2022-07-30T05:10:45;2.00;;;1.90;;
9330;SDS011;4704;50.470;12.072;2022-07-30T05:13:13;1.77;;;1.67;;
9330;SDS011;4704;50.470;12.072;2022-07-30T05:15:41;1.80;;;1.70;;
9330;SDS011;4704;50.470;12.072;2022-07-30T05:18:09;2.03;;;1.92;;
9330;SDS011;4704;50.470;12.072;2022-07-30T05:20:37;2.10;;;2.00;;
9330;SDS011;4704;50.470;12.072;2022-07-30T05:23:04;2.05;;;1.95;;
9330;SDS011;4704;50.470;12.072;2022-07-30T05:25:32;2.05;;;1.95;;
9330;SDS011;4704;50.470;12.072;2022-07-30T05:28:01;2.00;;;1.90;;
9330;SDS011;4704;50.470;12.072;2022-07-30T05:30:28;2.10;;;1.92;;
9330;SDS011;4704;50.470;12.072;2022-07-30T05:32:55;1.90;;;1.80;;
9330;SDS011;4704;50.470;12.072;2022-07-30T05:35:23;1.85;;;1.75;;
9330;SDS011;4704;50.470;12.072;2022-07-30T05:37:50;2.00;;;1.90;;
9330;SDS011;4704;50.470;12.072;2022-07-30T05:40:17;2.00;;;1.90;;
9330;SDS011;4704;50.470;12.072;2022-07-30T05:42:45;2.20;;;2.00;;
9330;SDS011;4704;50.470;12.072;2022-07-30T05:45:13;2.00;;;1.90;;
9330;SDS011;4704;50.470;12.072;2022-07-30T05:47:40;2.25;;;2.15;;
9330;SDS011;4704;50.470;12.072;2022-07-30T05:50:08;2.10;;;2.00;;
9330;SDS011;4704;50.470;12.072;2022-07-30T05:52:36;1.83;;;1.73;;
9330;SDS011;4704;50.470;12.072;2022-07-30T05:55:04;1.95;;;1.85;;
9330;SDS011;4704;50.470;12.072;2022-07-30T05:57:33;2.10;;;1.90;;
9330;SDS011;4704;50.470;12.072;2022-07-30T06:00:01;2.95;;;1.85;;
9330;SDS011;4704;50.470;12.072;2022-07-30T06:02:30;2.20;;;2.10;;
9330;SDS011;4704;50.470;12.072;2022-07-30T06:04:57;2.20;;;2.10;;
9330;SDS011;4704;50.470;12.072;2022-07-30T06:07:24;2.25;;;2.15;;
9330;SDS011;4704;50.470;12.072;2022-07-30T06:09:52;2.30;;;1.70;;
9330;SDS011;4704;50.470;12.072;2022-07-30T06:12:24;2.08;;;1.98;;
9330;SDS011;4704;50.470;12.072;2022-07-30T06:14:51;2.17;;;2.08;;
9330;SDS011;4704;50.470;12.072;2022-07-30T06:17:18;2.10;;;2.00;;
9330;SDS011;4704;50.470;12.072;2022-07-30T06:19:47;1.90;;;1.80;;
9330;SDS011;4704;50.470;12.072;2022-07-30T06:22:15;1.83;;;1.73;;
9330;SDS011;4704;50.470;12.072;2022-07-30T06:24:42;2.13;;;2.03;;
9330;SDS011;4704;50.470;12.072;2022-07-30T06:27:09;2.00;;;1.90;;
9330;SDS011;4704;50.470;12.072;2022-07-30T06:29:37;1.90;;;1.80;;
9330;SDS011;4704;50.470;12.072;2022-07-30T06:32:04;2.00;;;1.90;;
9330;SDS011;4704;50.470;12.072;2022-07-30T06:34:32;1.90;;;1.80;;
9330;SDS011;4704;50.470;12.072;2022-07-30T06:37:01;2.13;;;1.92;;
9330;SDS011;4704;50.470;12.072;2022-07-30T06:39:28;2.10;;;2.00;;
9330;SDS011;4704;50.470;12.072;2022-07-30T06:41:55;1.80;;;1.70;;
9330;SDS011;4704;50.470;12.072;2022-07-30T06:44:23;2.00;;;1.90;;
9330;SDS011;4704;50.470;12.072;2022-07-30T06:46:50;1.98;;;1.88;;
9330;SDS011;4704;50.470;12.072;2022-07-30T06:49:17;2.00;;;1.90;;
9330;SDS011;4704;50.470;12.072;2022-07-30T06:51:45;2.03;;;1.92;;
9330;SDS011;4704;50.470;12.072;2022-07-30T06:54:14;2.17;;;2.08;;
9330;SDS011;4704;50.470;12.072;2022-07-30T06:56:41;2.00;;;1.90;;
9330;SDS011;4704;50.470;12.072;2022-07-30T06:59:08;2.17;;;2.08;;
9330;SDS011;4704;50.470;12.072;2022-07-30T07:01:36;2.10;;;2.00;;
9330;SDS011;4704;50.470;12.072;2022-07-30T07:04:03;2.00;;;1.90;;
9330;SDS011;4704;50.470;12.072;2022-07-30T07:06:31;2.25;;;2.00;;
9330;SDS011;4704;50.470;12.072;2022-07-30T07:08:58;1.85;;;1.75;;
9330;SDS011;4704;50.470;12.072;2022-07-30T07:11:27;2.15;;;2.05;;
9330;SDS011;4704;50.470;12.072;2022-07-30T07:13:54;2.00;;;1.90;;
9330;SDS011;4704;50.470;12.072;2022-07-30T07:16:21;2.05;;;1.95;;
9330;SDS011;4704;50.470;12.072;2022-07-30T07:18:50;2.33;;;2.22;;
9330;SDS011;4704;50.470;12.072;2022-07-30T07:21:17;2.20;;;2.10;;
9330;SDS011;4704;50.470;12.072;2022-07-30T07:23:44;2.17;;;2.08;;
9330;SDS011;4704;50.470;12.072;2022-07-30T07:26:12;1.90;;;1.80;;
9330;SDS011;4704;50.470;12.072;2022-07-30T07:28:41;1.98;;;1.88;;
9330;SDS011;4704;50.470;12.072;2022-07-30T07:31:09;2.40;;;2.30;;
9330;SDS011;4704;50.470;12.072;2022-07-30T07:33:36;2.10;;;2.00;;
9330;SDS011;4704;50.470;12.072;2022-07-30T07:36:04;2.50;;;2.30;;
9330;SDS011;4704;50.470;12.072;2022-07-30T07:38:32;2.20;;;2.10;;
9330;SDS011;4704;50.470;12.072;2022-07-30T07:41:03;2.28;;;2.05;;
9330;SDS011;4704;50.470;12.072;2022-07-30T07:43:32;2.10;;;2.00;;
9330;SDS011;4704;50.470;12.072;2022-07-30T07:46:01;2.40;;;2.25;;
9330;SDS011;4704;50.470;12.072;2022-07-30T07:48:28;2.00;;;1.90;;
9330;SDS011;4704;50.470;12.072;2022-07-30T07:50:56;2.40;;;2.20;;
9330;SDS011;4704;50.470;12.072;2022-07-30T07:53:23;2.45;;;2.25;;
9330;SDS011;4704;50.470;12.072;2022-07-30T07:55:51;2.00;;;1.90;;
9330;SDS011;4704;50.470;12.072;2022-07-30T07:58:18;2.42;;;2.22;;
9330;SDS011;4704;50.470;12.072;2022-07-30T08:00:46;2.22;;;2.13;;
9330;SDS011;4704;50.470;12.072;2022-07-30T08:03:14;1.90;;;1.80;;
9330;SDS011;4704;50.470;12.072;2022-07-30T08:05:42;2.03;;;1.92;;
9330;SDS011;4704;50.470;12.072;2022-07-30T08:08:09;2.40;;;2.30;;
9330;SDS011;4704;50.470;12.072;2022-07-30T08:10:36;2.17;;;2.08;;
9330;SDS011;4704;50.470;12.072;2022-07-30T08:13:04;2.50;;;2.30;;
9330;SDS011;4704;50.470;12.072;2022-07-30T08:15:31;2.08;;;1.98;;
9330;SDS011;4704;50.470;12.072;2022-07-30T08:17:58;2.30;;;2.20;;
9330;SDS011;4704;50.470;12.072;2022-07-30T08:20:27;2.20;;;2.10;;
9330;SDS011;4704;50.470;12.072;2022-07-30T08:22:54;2.83;;;2.50;;
9330;SDS011;4704;50.470;12.072;2022-07-30T08:25:22;2.40;;;2.30;;
9330;SDS011;4704;50.470;12.072;2022-07-30T08:27:49;2.30;;;2.20;;
9330;SDS011;4704;50.470;12.072;2022-07-30T08:30:17;2.42;;;2.33;;
9330;SDS011;4704;50.470;12.072;2022-07-30T08:32:44;2.50;;;2.30;;
9330;SDS011;4704;50.470;12.072;2022-07-30T08:35:11;2.30;;;2.20;;
9330;SDS011;4704;50.470;12.072;2022-07-30T08:37:40;2.30;;;2.20;;
9330;SDS011;4704;50.470;12.072;2022-07-30T08:40:08;2.30;;;2.20;;
9330;SDS011;4704;50.470;12.072;2022-07-30T08:42:36;2.25;;;2.15;;
9330;SDS011;4704;50.470;12.072;2022-07-30T08:45:04;2.75;;;2.58;;
9330;SDS011;4704;50.470;12.072;2022-07-30T08:47:32;2.38;;;2.17;;
9330;SDS011;4704;50.470;12.072;2022-07-30T08:50:00;2.50;;;2.30;;
9330;SDS011;4704;50.470;12.072;2022-07-30T08:52:30;2.30;;;2.20;;
9330;SDS011;4704;50.470;12.072;2022-07-30T08:54:59;2.33;;;2.22;;
9330;SDS011;4704;50.470;12.072;2022-07-30T08:57:27;2.50;;;2.40;;
9330;SDS011;4704;50.470;12.072;2022-07-30T08:59:55;2.40;;;2.30;;
9330;SDS011;4704;50.470;12.072;2022-07-30T09:02:23;2.40;;;2.30;;
9330;SDS011;4704;50.470;12.072;2022-07-30T09:04:50;2.38;;;2.28;;
9330;SDS011;4704;50.470;12.072;2022-07-30T09:07:18;2.20;;;2.10;;
9330;SDS011;4704;50.470;12.072;2022-07-30T09:09:45;2.22;;;2.13;;
9330;SDS011;4704;50.470;12.072;2022-07-30T09:12:32;2.10;;;2.00;;
9330;SDS011;4704;50.470;12.072;2022-07-30T09:15:00;2.20;;;2.10;;
9330;SDS011;4704;50.470;12.072;2022-07-30T09:17:27;2.40;;;2.20;;
9330;SDS011;4704;50.470;12.072;2022-07-30T09:20:04;2.50;;;2.30;;
9330;SDS011;4704;50.470;12.072;2022-07-30T09:22:39;2.30;;;2.20;;
9330;SDS011;4704;50.470;12.072;2022-07-30T09:25:07;2.60;;;2.50;;
9330;SDS011;4704;50.470;12.072;2022-07-30T09:27:43;2.67;;;2.47;;
9330;SDS011;4704;50.470;12.072;2022-07-30T09:30:11;2.17;;;2.08;;
9330;SDS011;4704;50.470;12.072;2022-07-30T09:32:48;2.13;;;2.03;;
9330;SDS011;4704;50.470;12.072;2022-07-30T09:35:15;2.42;;;2.30;;
9330;SDS011;4704;50.470;12.072;2022-07-30T09:37:43;2.33;;;2.20;;
9330;SDS011;4704;50.470;12.072;2022-07-30T09:40:12;2.40;;;2.30;;
9330;SDS011;4704;50.470;12.072;2022-07-30T09:42:40;2.53;;;2.30;;
9330;SDS011;4704;50.470;12.072;2022-07-30T09:45:10;2.60;;;2.40;;
9330;SDS011;4704;50.470;12.072;2022-07-30T09:47:38;2.60;;;2.40;;
9330;SDS011;4704;50.470;12.072;2022-07-30T09:50:07;2.30;;;2.20;;
9330;SDS011;4704;50.470;12.072;2022-07-30T09:52:35;2.67;;;2.47;;
9330;SDS011;4704;50.470;12.072;2022-07-30T09:55:03;2.95;;;2.25;;
9330;SDS011;4704;50.470;12.072;2022-07-30T09:57:30;2.40;;;2.30;;
9330;SDS011;4704;50.470;12.072;2022-07-30T09:59:58;2.38;;;2.28;;
9330;SDS011;4704;50.470;12.072;2022-07-30T10:02:43;2.38;;;2.28;;
9330;SDS011;4704;50.470;12.072;2022-07-30T10:05:12;2.47;;;2.38;;
9330;SDS011;4704;50.470;12.072;2022-07-30T10:07:47;2.40;;;2.30;;
9330;SDS011;4704;50.470;12.072;2022-07-30T10:10:15;2.28;;;2.17;;
9330;SDS011;4704;50.470;12.072;2022-07-30T10:12:43;2.70;;;2.50;;
9330;SDS011;4704;50.470;12.072;2022-07-30T10:15:10;2.17;;;2.08;;
9330;SDS011;4704;50.470;12.072;2022-07-30T10:17:39;2.58;;;2.38;;
9330;SDS011;4704;50.470;12.072;2022-07-30T10:20:08;2.45;;;2.35;;
9330;SDS011;4704;50.470;12.072;2022-07-30T10:22:36;2.70;;;2.50;;
9330;SDS011;4704;50.470;12.072;2022-07-30T10:25:04;2.17;;;2.08;;
9330;SDS011;4704;50.470;12.072;2022-07-30T10:27:32;2.47;;;2.38;;
9330;SDS011;4704;50.470;12.072;2022-07-30T10:29:59;2.45;;;2.25;;
9330;SDS011;4704;50.470;12.072;2022-07-30T10:32:27;2.38;;;2.20;;
9330;SDS011;4704;50.470;12.072;2022-07-30T10:34:54;2.70;;;2.50;;
9330;SDS011;4704;50.470;12.072;2022-07-30T10:37:23;2.40;;;2.30;;
9330;SDS011;4704;50.470;12.072;2022-07-30T10:39:52;2.70;;;2.55;;
9330;SDS011;4704;50.470;12.072;2022-07-30T10:42:25;2.45;;;2.35;;
9330;SDS011;4704;50.470;12.072;2022-07-30T10:47:47;2.28;;;2.10;;
9330;SDS011;4704;50.470;12.072;2022-07-30T10:50:15;2.95;;;2.70;;
9330;SDS011;4704;50.470;12.072;2022-07-30T10:52:49;2.80;;;2.60;;
9330;SDS011;4704;50.470;12.072;2022-07-30T10:55:17;2.55;;;2.45;;
9330;SDS011;4704;50.470;12.072;2022-07-30T10:57:58;2.85;;;2.65;;
9330;SDS011;4704;50.470;12.072;2022-07-30T11:00:26;2.72;;;2.53;;
9330;SDS011;4704;50.470;12.072;2022-07-30T11:03:13;2.92;;;2.75;;
9330;SDS011;4704;50.470;12.072;2022-07-30T11:05:41;3.15;;;2.95;;
9330;SDS011;4704;50.470;12.072;2022-07-30T11:08:28;2.90;;;2.70;;
9330;SDS011;4704;50.470;12.072;2022-07-30T11:10:55;3.35;;;3.15;;
9330;SDS011;4704;50.470;12.072;2022-07-30T11:16:05;3.30;;;3.10;;
9330;SDS011;4704;50.470;12.072;2022-07-30T11:18:32;3.53;;;3.33;;
9330;SDS011;4704;50.470;12.072;2022-07-30T11:21:20;3.20;;;3.00;;
9330;SDS011;4704;50.470;12.072;2022-07-30T11:23:49;3.92;;;3.63;;
9330;SDS011;4704;50.470;12.072;2022-07-30T11:29:03;4.20;;;3.90;;
9330;SDS011;4704;50.470;12.072;2022-07-30T11:31:31;3.90;;;3.70;;
9330;SDS011;4704;50.470;12.072;2022-07-30T11:39:41;4.18;;;3.97;;
9330;SDS011;4704;50.470;12.072;2022-07-30T11:42:29;3.53;;;3.33;;
9330;SDS011;4704;50.470;12.072;2022-07-30T11:45:09;4.10;;;3.80;;
9330;SDS011;4704;50.470;12.072;2022-07-30T11:47:48;3.97;;;3.70;;
9330;SDS011;4704;50.470;12.072;2022-07-30T11:50:16;4.38;;;3.97;;
9330;SDS011;4704;50.470;12.072;2022-07-30T11:52:47;4.25;;;3.95;;
9330;SDS011;4704;50.470;12.072;2022-07-30T11:55:21;4.20;;;3.90;;
9330;SDS011;4704;50.470;12.072;2022-07-30T11:57:49;4.50;;;4.20;;
9330;SDS011;4704;50.470;12.072;2022-07-30T12:00:17;4.35;;;4.05;;
9330;SDS011;4704;50.470;12.072;2022-07-30T12:02:45;4.47;;;4.18;;
9330;SDS011;4704;50.470;12.072;2022-07-30T12:05:13;4.30;;;4.00;;
9330;SDS011;4704;50.470;12.072;2022-07-30T12:07:41;4.50;;;4.20;;
9330;SDS011;4704;50.470;12.072;2022-07-30T12:10:12;4.13;;;3.92;;
9330;SDS011;4704;50.470;12.072;2022-07-30T12:12:41;4.35;;;4.15;;
9330;SDS011;4704;50.470;12.072;2022-07-30T12:15:09;4.47;;;4.15;;
9330;SDS011;4704;50.470;12.072;2022-07-30T12:17:40;4.22;;;3.92;;
9330;SDS011;4704;50.470;12.072;2022-07-30T12:20:14;4.50;;;4.18;;
9330;SDS011;4704;50.470;12.072;2022-07-30T12:22:41;4.32;;;4.07;;
9330;SDS011;4704;50.470;12.072;2022-07-30T12:25:09;4.40;;;4.10;;
9330;SDS011;4704;50.470;12.072;2022-07-30T12:27:36;4.13;;;3.92;;
9330;SDS011;4704;50.470;12.072;2022-07-30T12:30:06;4.60;;;4.30;;
9330;SDS011;4704;50.470;12.072;2022-07-30T12:32:35;4.22;;;3.97;;
9330;SDS011;4704;50.470;12.072;2022-07-30T12:35:02;4.47;;;4.18;;
9330;SDS011;4704;50.470;12.072;2022-07-30T12:37:30;4.28;;;4.00;;
9330;SDS011;4704;50.470;12.072;2022-07-30T12:40:07;4.45;;;4.07;;
9330;SDS011;4704;50.470;12.072;2022-07-30T12:42:35;4.50;;;4.20;;
9330;SDS011;4704;50.470;12.072;2022-07-30T12:45:06;4.10;;;3.80;;
9330;SDS011;4704;50.470;12.072;2022-07-30T12:47:33;4.30;;;4.00;;
9330;SDS011;4704;50.470;12.072;2022-07-30T12:50:01;4.00;;;3.80;;
9330;SDS011;4704;50.470;12.072;2022-07-30T12:52:41;4.25;;;3.95;;
9330;SDS011;4704;50.470;12.072;2022-07-30T12:55:14;4.20;;;3.90;;
9330;SDS011;4704;50.470;12.072;2022-07-30T12:57:51;4.00;;;3.80;;
9330;SDS011;4704;50.470;12.072;2022-07-30T13:00:20;3.65;;;3.45;;
9330;SDS011;4704;50.470;12.072;2022-07-30T13:02:47;3.70;;;3.50;;
9330;SDS011;4704;50.470;12.072;2022-07-30T13:05:14;4.03;;;3.83;;
9330;SDS011;4704;50.470;12.072;2022-07-30T13:07:52;3.70;;;3.50;;
9330;SDS011;4704;50.470;12.072;2022-07-30T13:10:19;3.72;;;3.42;;
9330;SDS011;4704;50.470;12.072;2022-07-30T13:12:46;3.70;;;3.50;;
9330;SDS011;4704;50.470;12.072;2022-07-30T13:15:16;3.80;;;3.60;;
9330;SDS011;4704;50.470;12.072;2022-07-30T13:17:45;3.50;;;3.30;;
9330;SDS011;4704;50.470;12.072;2022-07-30T13:20:13;3.90;;;3.70;;
9330;SDS011;4704;50.470;12.072;2022-07-30T13:22:40;3.42;;;3.22;;
9330;SDS011;4704;50.470;12.072;2022-07-30T13:25:08;3.80;;;3.50;;
9330;SDS011;4704;50.470;12.072;2022-07-30T13:27:36;3.78;;;3.58;;
9330;SDS011;4704;50.470;12.072;2022-07-30T13:30:04;3.45;;;3.25;;
9330;SDS011;4704;50.470;12.072;2022-07-30T13:32:31;3.88;;;3.58;;
9330;SDS011;4704;50.470;12.072;2022-07-30T13:35:00;3.38;;;3.17;;
9330;SDS011;4704;50.470;12.072;2022-07-30T13:37:27;3.67;;;3.47;;
9330;SDS011;4704;50.470;12.072;2022-07-30T13:39:55;3.80;;;3.60;;
9330;SDS011;4704;50.470;12.072;2022-07-30T13:42:22;3.50;;;3.30;;
9330;SDS011;4704;50.470;12.072;2022-07-30T13:44:50;3.80;;;3.60;;
9330;SDS011;4704;50.470;12.072;2022-07-30T13:47:17;3.90;;;3.70;;
9330;SDS011;4704;50.470;12.072;2022-07-30T13:49:44;3.80;;;3.50;;
9330;SDS011;4704;50.470;12.072;2022-07-30T13:52:15;3.83;;;3.63;;
9330;SDS011;4704;50.470;12.072;2022-07-30T13:54:42;4.32;;;4.03;;
9330;SDS011;4704;50.470;12.072;2022-07-30T13:57:10;3.83;;;3.63;;
9330;SDS011;4704;50.470;12.072;2022-07-30T13:59:38;4.25;;;4.00;;
9330;SDS011;4704;50.470;12.072;2022-07-30T14:02:06;3.80;;;3.50;;
9330;SDS011;4704;50.470;12.072;2022-07-30T14:04:34;4.57;;;4.28;;
9330;SDS011;4704;50.470;12.072;2022-07-30T14:07:01;4.32;;;4.03;;
9330;SDS011;4704;50.470;12.072;2022-07-30T14:09:30;4.43;;;4.13;;
9330;SDS011;4704;50.470;12.072;2022-07-30T14:11:58;4.43;;;4.20;;
9330;SDS011;4704;50.470;12.072;2022-07-30T14:14:25;4.75;;;4.45;;
9330;SDS011;4704;50.470;12.072;2022-07-30T14:16:52;5.03;;;4.72;;
9330;SDS011;4704;50.470;12.072;2022-07-30T14:19:20;5.35;;;5.05;;
9330;SDS011;4704;50.470;12.072;2022-07-30T14:21:47;5.00;;;4.70;;
9330;SDS011;4704;50.470;12.072;2022-07-30T14:24:14;4.90;;;4.60;;
9330;SDS011;4704;50.470;12.072;2022-07-30T14:26:43;4.43;;;4.22;;
9330;SDS011;4704;50.470;12.072;2022-07-30T14:29:10;5.15;;;4.85;;
9330;SDS011;4704;50.470;12.072;2022-07-30T14:31:37;4.75;;;4.45;;
9330;SDS011;4704;50.470;12.072;2022-07-30T14:34:05;4.35;;;4.07;;
9330;SDS011;4704;50.470;12.072;2022-07-30T14:36:32;4.80;;;4.50;;
9330;SDS011;4704;50.470;12.072;2022-07-30T14:39:01;4.00;;;3.80;;
9330;SDS011;4704;50.470;12.072;2022-07-30T14:41:29;4.97;;;4.68;;
9330;SDS011;4704;50.470;12.072;2022-07-30T14:43:57;4.65;;;4.35;;
9330;SDS011;4704;50.470;12.072;2022-07-30T14:46:25;5.07;;;4.60;;
9330;SDS011;4704;50.470;12.072;2022-07-30T14:48:52;5.38;;;5.07;;
9330;SDS011;4704;50.470;12.072;2022-07-30T14:51:19;5.00;;;4.70;;
9330;SDS011;4704;50.470;12.072;2022-07-30T14:53:47;5.10;;;4.80;;
9330;SDS011;4704;50.470;12.072;2022-07-30T14:56:14;4.75;;;4.45;;
9330;SDS011;4704;50.470;12.072;2022-07-30T14:58:42;4.97;;;4.68;;
9330;SDS011;4704;50.470;12.072;2022-07-30T15:01:10;5.13;;;4.82;;
9330;SDS011;4704;50.470;12.072;2022-07-30T15:03:38;4.88;;;4.57;;
9330;SDS011;4704;50.470;12.072;2022-07-30T15:06:05;4.70;;;4.40;;
9330;SDS011;4704;50.470;12.072;2022-07-30T15:08:33;5.32;;;5.03;;
9330;SDS011;4704;50.470;12.072;2022-07-30T15:11:01;4.72;;;4.43;;
9330;SDS011;4704;50.470;12.072;2022-07-30T15:13:28;4.97;;;4.68;;
9330;SDS011;4704;50.470;12.072;2022-07-30T15:15:55;4.78;;;4.47;;
9330;SDS011;4704;50.470;12.072;2022-07-30T15:18:24;4.72;;;4.43;;
9330;SDS011;4704;50.470;12.072;2022-07-30T15:20:51;5.10;;;4.75;;
9330;SDS011;4704;50.470;12.072;2022-07-30T15:23:18;4.80;;;4.50;;
9330;SDS011;4704;50.470;12.072;2022-07-30T15:25:46;4.78;;;4.47;;